Time;durP1;ratioP1;P1;durP2;ratioP2;P2;SDS_P1;SDS_P2;PMS_P1;PMS_P2;Temp;Humidity;BMP_temperature;BMP_pressure;BME280_temperature;BME280_humidity;BME280_pressure;Samples;Min_cycle;Max_cycle;Signal;HPM_P1;HPM_P2
2023/03/11 00:00:45;;;;;;;29.20;11.90;;;;;;;7.06;100.00;97659.98;214363;1293;139610;-89
2023/03/11 00:05:46;;;;;;;21.80;10.90;;;;;;;7.04;100.00;97650.63;215029;1289;138749;-89
2023/03/11 00:10:50;;;;;;;22.00;10.70;;;;;;;7.04;100.00;97646.96;214603;1289;139649;-89
2023/03/11 00:15:55;;;;;;;20.30;9.70;;;;;;;7.04;100.00;97639.70;214940;1293;138427;-88
2023/03/11 00:20:57;;;;;;;20.90;11.70;;;;;;;7.02;100.00;97636.61;214650;1290;138207;-88
2023/03/11 00:26:00;;;;;;;23.80;11.50;;;;;;;7.05;100.00;97635.77;214767;1289;139563;-85
2023/03/11 00:31:01;;;;;;;25.60;13.40;;;;;;;7.06;100.00;97637.32;215061;1288;138529;-85
2023/03/11 00:36:01;;;;;;;23.50;15.40;;;;;;;7.07;100.00;97638.70;214694;1291;139753;-86
2023/03/11 00:41:02;;;;;;;24.50;14.60;;;;;;;7.08;100.00;97632.59;215089;1289;96575;-86
2023/03/11 00:46:03;;;;;;;26.00;14.80;;;;;;;7.09;100.00;97629.30;214780;1288;139194;-86
2023/03/11 00:51:06;;;;;;;24.80;13.60;;;;;;;7.09;100.00;97627.97;215195;1289;138616;-86
2023/03/11 00:56:11;;;;;;;23.40;14.00;;;;;;;7.08;100.00;97624.23;214409;1289;139586;-86
2023/03/11 01:01:16;;;;;;;23.20;13.50;;;;;;;7.07;100.00;97617.47;215148;1289;139595;-85
2023/03/11 01:06:17;;;;;;;26.50;14.00;;;;;;;7.06;100.00;97612.08;214571;1289;138747;-86
2023/03/11 01:11:17;;;;;;;23.50;12.60;;;;;;;7.06;100.00;97607.86;214989;1288;138590;-86
2023/03/11 01:16:17;;;;;;;23.10;12.90;;;;;;;7.06;100.00;97603.50;214469;1289;139256;-87
2023/03/11 01:21:18;;;;;;;23.30;11.80;;;;;;;7.07;100.00;97603.71;214867;1290;138588;-86
2023/03/11 01:26:18;;;;;;;24.00;12.10;;;;;;;7.09;100.00;97602.05;214461;1294;139741;-87
2023/03/11 01:31:19;;;;;;;23.90;12.10;;;;;;;7.08;100.00;97597.66;215070;1288;138492;-87
2023/03/11 01:36:19;;;;;;;23.60;11.40;;;;;;;7.09;100.00;97596.64;214451;1288;139713;-87
2023/03/11 01:41:20;;;;;;;21.80;11.40;;;;;;;7.11;100.00;97599.96;214988;1289;138665;-86
2023/03/11 01:46:25;;;;;;;22.40;11.90;;;;;;;7.11;100.00;97598.45;214510;1289;138680;-86
2023/03/11 01:51:31;;;;;;;23.10;13.10;;;;;;;7.12;100.00;97598.37;214807;1289;138650;-87
2023/03/11 01:56:32;;;;;;;20.10;11.70;;;;;;;7.13;100.00;97598.83;214375;1291;139045;-86
2023/03/11 02:01:33;;;;;;;19.00;11.40;;;;;;;7.12;100.00;97593.67;215019;1288;138506;-86
2023/03/11 02:06:34;;;;;;;17.70;10.10;;;;;;;7.10;100.00;97594.02;214716;1291;140082;-87
2023/03/11 02:11:35;;;;;;;22.10;12.00;;;;;;;7.07;100.00;97595.58;215060;1289;138449;-86
2023/03/11 02:16:35;;;;;;;29.20;17.20;;;;;;;7.08;100.00;97594.08;214676;1289;138564;-86
2023/03/11 02:21:36;;;;;;;47.20;24.40;;;;;;;7.08;100.00;97595.95;215034;1288;138325;-86
2023/03/11 02:26:42;;;;;;;46.60;24.50;;;;;;;7.02;100.00;97599.20;214368;1289;138782;-87
2023/03/11 02:31:43;;;;;;;51.50;25.30;;;;;;;6.97;100.00;97604.14;214980;1289;138620;-87
2023/03/11 02:36:43;;;;;;;40.40;22.20;;;;;;;6.84;100.00;97608.53;214387;1289;140041;-87
2023/03/11 02:41:45;;;;;;;38.00;19.70;;;;;;;6.64;100.00;97615.48;214950;1290;138920;-87
2023/03/11 02:46:46;;;;;;;39.70;20.40;;;;;;;6.48;100.00;97625.76;214710;1289;139596;-87
2023/03/11 02:51:46;;;;;;;29.90;17.30;;;;;;;6.36;100.00;97630.50;215219;1289;138460;-88
2023/03/11 02:56:47;;;;;;;34.10;17.90;;;;;;;6.24;100.00;97641.94;214560;1289;139943;-87
2023/03/11 03:01:48;;;;;;;36.00;17.50;;;;;;;6.04;100.00;97647.57;215031;1289;139033;-85
2023/03/11 03:06:48;;;;;;;29.20;15.30;;;;;;;5.82;100.00;97652.73;214280;1289;140448;-87
2023/03/11 03:11:49;;;;;;;27.10;14.60;;;;;;;5.62;100.00;97661.72;214929;1289;140189;-87
2023/03/11 03:16:49;;;;;;;25.90;12.80;;;;;;;5.47;100.00;97663.41;214491;1289;138654;-87
2023/03/11 03:21:50;;;;;;;23.30;12.00;;;;;;;5.34;100.00;97676.83;214933;1289;139371;-87
2023/03/11 03:26:51;;;;;;;22.40;11.40;;;;;;;5.20;100.00;97688.90;214454;1289;138531;-87
2023/03/11 03:31:51;;;;;;;15.70;8.20;;;;;;;5.07;100.00;97704.48;214978;1289;138593;-88
2023/03/11 03:36:52;;;;;;;15.80;8.00;;;;;;;4.95;100.00;97706.86;214455;1288;138794;-88
2023/03/11 03:41:52;;;;;;;14.50;7.90;;;;;;;4.77;100.00;97712.65;215125;1288;138809;-88
2023/03/11 03:46:53;;;;;;;11.40;5.30;;;;;;;4.57;100.00;97730.27;214511;1290;140602;-86
2023/03/11 03:51:53;;;;;;;13.00;6.10;;;;;;;4.39;100.00;97743.17;214866;1293;138171;-87
2023/03/11 03:56:54;;;;;;;9.30;4.90;;;;;;;4.32;100.00;97759.48;214442;1288;138521;-87
2023/03/11 04:01:55;;;;;;;11.40;5.10;;;;;;;4.22;100.00;97767.55;214988;1288;138307;-87
2023/03/11 04:06:55;;;;;;;10.80;4.70;;;;;;;4.10;100.00;97776.66;214548;1288;139427;-86
2023/03/11 04:11:56;;;;;;;11.20;5.10;;;;;;;3.96;100.00;97784.04;214754;1288;262858;-87
2023/03/11 04:16:57;;;;;;;9.50;4.90;;;;;;;3.75;100.00;97790.83;214393;1288;142074;-87
2023/03/11 04:21:58;;;;;;;10.30;4.70;;;;;;;3.62;100.00;97803.86;214896;1289;138084;-88
2023/03/11 04:26:58;;;;;;;10.00;4.10;;;;;;;3.47;100.00;97806.16;214321;1288;139199;-88
2023/03/11 04:31:59;;;;;;;10.90;4.40;;;;;;;3.32;100.00;97817.92;214756;1288;138516;-88
2023/03/11 04:37:00;;;;;;;9.60;4.00;;;;;;;3.19;100.00;97835.20;214353;1291;138972;-88
2023/03/11 04:42:01;;;;;;;9.60;4.20;;;;;;;3.08;100.00;97839.24;215025;1288;138342;-87
2023/03/11 04:47:01;;;;;;;9.10;4.60;;;;;;;3.00;100.00;97850.83;214444;1289;138536;-90
2023/03/11 04:52:02;;;;;;;9.70;4.90;;;;;;;2.91;100.00;97868.13;214884;1291;138658;-90
2023/03/11 04:57:03;;;;;;;10.90;5.30;;;;;;;2.76;100.00;97880.07;214384;1288;140121;-89
2023/03/11 05:02:04;;;;;;;12.10;5.70;;;;;;;2.61;100.00;97894.72;214822;1288;138419;-90
2023/03/11 05:07:04;;;;;;;14.20;6.00;;;;;;;2.49;100.00;97907.80;214403;1288;138920;-90
2023/03/11 05:12:05;;;;;;;11.60;5.20;;;;;;;2.39;100.00;97917.06;214675;1289;138952;-91
2023/03/11 05:17:07;;;;;;;11.50;4.90;;;;;;;2.25;100.00;97930.83;214219;1288;139065;-90
2023/03/11 05:22:07;;;;;;;10.50;4.60;;;;;;;2.17;100.00;97946.85;214986;1288;96577;-91
2023/03/11 05:27:08;;;;;;;9.30;4.70;;;;;;;2.08;100.00;97962.16;214419;1289;138893;-91
2023/03/11 05:32:10;;;;;;;13.50;5.50;;;;;;;2.01;100.00;97972.50;214962;1289;138800;-89
2023/03/11 05:37:11;;;;;;;12.90;6.00;;;;;;;1.94;100.00;97986.34;214356;1289;139423;-90
2023/03/11 05:42:12;;;;;;;10.80;5.30;;;;;;;1.87;100.00;98003.04;214743;1289;138945;-91
2023/03/11 05:47:13;;;;;;;12.30;6.20;;;;;;;1.85;100.00;98015.09;214381;1289;138620;-88
2023/03/11 05:52:14;;;;;;;13.10;6.50;;;;;;;1.81;100.00;98035.60;214978;1288;96553;-90
2023/03/11 05:57:15;;;;;;;14.00;6.70;;;;;;;1.75;100.00;98054.00;214412;1288;138376;-91
2023/03/11 06:02:15;;;;;;;12.60;7.20;;;;;;;1.71;100.00;98067.14;215068;1293;138560;-90
2023/03/11 06:07:16;;;;;;;12.00;6.70;;;;;;;1.66;100.00;98076.70;214609;1288;138520;-87
2023/03/11 06:12:17;;;;;;;14.50;7.50;;;;;;;1.62;100.00;98094.94;215036;1288;138884;-92
2023/03/11 06:17:18;;;;;;;12.50;6.60;;;;;;;1.59;100.00;98112.88;214617;1291;139782;-90
2023/03/11 06:22:19;;;;;;;12.00;6.00;;;;;;;1.53;100.00;98129.55;215051;1289;97466;-88
2023/03/11 06:27:20;;;;;;;11.70;6.40;;;;;;;1.46;100.00;98151.08;214412;1289;138662;-87
2023/03/11 06:32:20;;;;;;;12.50;6.30;;;;;;;1.41;100.00;98172.24;214837;1288;138870;-89
2023/03/11 06:37:23;;;;;;;12.20;5.70;;;;;;;1.37;100.00;98189.53;214156;1289;139412;-89
2023/03/11 06:42:25;;;;;;;12.60;6.20;;;;;;;1.33;100.00;98219.30;214975;1289;138882;-87
2023/03/11 06:47:26;;;;;;;12.60;6.80;;;;;;;1.32;100.00;98245.67;214340;1289;139091;-88
2023/03/11 06:52:28;;;;;;;12.20;6.50;;;;;;;1.30;100.00;98269.58;215056;1289;96580;-87
2023/03/11 06:57:30;;;;;;;14.10;7.20;;;;;;;1.29;100.00;98294.03;214247;1289;138464;-87
2023/03/11 07:02:30;;;;;;;13.30;7.30;;;;;;;1.28;100.00;98316.09;214969;1290;138820;-86
2023/03/11 07:07:31;;;;;;;14.30;7.80;;;;;;;1.30;100.00;98330.66;214550;1289;139677;-86
2023/03/11 07:12:32;;;;;;;14.00;8.10;;;;;;;1.28;100.00;98349.27;214869;1291;138652;-86
2023/03/11 07:17:32;;;;;;;13.50;6.80;;;;;;;1.25;100.00;98364.16;214253;1289;139524;-85
2023/03/11 07:22:33;;;;;;;12.00;6.80;;;;;;;1.24;100.00;98379.64;215062;1290;96613;-86
2023/03/11 07:27:34;;;;;;;12.60;6.10;;;;;;;1.21;100.00;98398.55;214593;1290;138496;-85
2023/03/11 07:32:34;;;;;;;14.70;7.40;;;;;;;1.23;100.00;98417.09;215105;1293;138809;-84
2023/03/11 07:37:34;;;;;;;12.60;6.50;;;;;;;1.25;100.00;98429.58;214740;1288;138960;-85
2023/03/11 07:42:35;;;;;;;12.20;6.10;;;;;;;1.26;100.00;98441.98;215184;1289;138846;-85
2023/03/11 07:47:35;;;;;;;11.80;6.40;;;;;;;1.27;100.00;98455.02;214653;1290;138323;-85
2023/03/11 07:52:36;;;;;;;13.20;6.30;;;;;;;1.28;100.00;98468.80;215199;1289;95229;-85
2023/03/11 07:57:37;;;;;;;12.50;6.10;;;;;;;1.26;100.00;98479.99;214598;1289;138698;-85
2023/03/11 08:02:38;;;;;;;15.10;6.70;;;;;;;1.28;100.00;98499.14;214946;1288;138649;-85
2023/03/11 08:07:39;;;;;;;14.20;7.00;;;;;;;1.31;100.00;98521.88;214590;1289;138880;-86
2023/03/11 08:12:39;;;;;;;13.00;5.90;;;;;;;1.30;100.00;98543.54;215307;1289;139293;-86
2023/03/11 08:17:40;;;;;;;11.30;6.00;;;;;;;1.27;100.00;98559.05;214671;1288;138701;-86
2023/03/11 08:22:41;;;;;;;10.70;4.80;;;;;;;1.28;100.00;98572.30;215118;1288;97941;-84
2023/03/11 08:27:41;;;;;;;11.40;4.90;;;;;;;1.30;100.00;98583.09;214491;1288;139240;-86
2023/03/11 08:32:42;;;;;;;12.00;4.60;;;;;;;1.28;100.00;98605.42;215269;1291;138268;-86
2023/03/11 08:37:42;;;;;;;8.70;4.50;;;;;;;1.26;100.00;98621.11;214756;1291;139013;-86
2023/03/11 08:42:43;;;;;;;12.50;6.10;;;;;;;1.30;100.00;98638.20;215223;1289;138128;-87
2023/03/11 08:47:43;;;;;;;12.80;5.80;;;;;;;1.34;100.00;98654.23;214961;1288;138530;-86
2023/03/11 08:52:44;;;;;;;10.90;5.30;;;;;;;1.34;100.00;98658.04;215199;1288;95842;-87
2023/03/11 08:57:45;;;;;;;10.40;5.30;;;;;;;1.37;100.00;98671.40;214737;1288;138773;-87
2023/03/11 09:02:46;;;;;;;12.20;5.20;;;;;;;1.35;100.00;98681.59;215128;1288;138120;-86
2023/03/11 09:07:47;;;;;;;8.50;4.60;;;;;;;1.35;100.00;98697.62;214514;1288;139316;-89
2023/03/11 09:12:47;;;;;;;9.40;4.80;;;;;;;1.38;100.00;98715.55;215357;1291;138153;-87
2023/03/11 09:17:48;;;;;;;9.00;4.50;;;;;;;1.42;100.00;98730.91;214631;1288;138517;-86
2023/03/11 09:22:48;;;;;;;8.60;4.20;;;;;;;1.46;100.00;98740.50;215196;1289;96559;-87
2023/03/11 09:27:49;;;;;;;9.20;4.20;;;;;;;1.49;100.00;98754.95;214846;1288;138727;-89
2023/03/11 09:32:49;;;;;;;9.70;3.90;;;;;;;1.51;100.00;98767.38;215244;1288;138003;-89
2023/03/11 09:37:50;;;;;;;10.80;5.00;;;;;;;1.53;100.00;98778.21;214861;1291;138366;-87
2023/03/11 09:43:15;;;;;;;10.30;4.30;;;;;;;1.59;100.00;98783.28;214925;1291;138501;-87
2023/03/11 09:48:31;;;;;;;11.30;4.40;;;;;;;1.60;100.00;98794.59;214737;1288;139785;-88
2023/03/11 09:53:40;;;;;;;11.70;5.20;;;;;;;1.67;100.00;98811.02;215152;1288;139053;-86
2023/03/11 09:58:55;;;;;;;11.80;4.80;;;;;;;1.76;100.00;98827.00;214634;1289;139747;-87
2023/03/11 10:04:07;;;;;;;11.50;4.60;;;;;;;1.80;100.00;98841.33;214790;1291;138324;-86
2023/03/11 10:09:39;;;;;;;11.80;5.60;;;;;;;1.76;100.00;98853.88;214537;1292;138821;-86
2023/03/11 10:15:08;;;;;;;11.30;5.20;;;;;;;1.79;100.00;98868.11;215013;1289;138364;-87
2023/03/11 10:20:26;;;;;;;14.50;6.70;;;;;;;1.83;100.00;98874.95;214448;1289;140506;-86
2023/03/11 10:26:02;;;;;;;12.10;5.40;;;;;;;1.86;100.00;98886.31;214826;1288;138583;-87
2023/03/11 10:31:24;;;;;;;11.60;5.10;;;;;;;1.88;100.00;98897.44;214726;1289;138508;-87
2023/03/11 10:36:57;;;;;;;12.00;5.60;;;;;;;1.88;100.00;98907.76;214357;1289;140571;-88
2023/03/11 10:42:03;;;;;;;9.60;3.90;;;;;;;1.84;100.00;98921.85;215012;1291;138417;-87
2023/03/11 10:47:04;;;;;;;12.50;5.20;;;;;;;1.84;100.00;98930.27;214719;1289;138267;-87
2023/03/11 10:52:05;;;;;;;15.70;6.20;;;;;;;1.85;100.00;98939.79;215305;1289;96660;-89
2023/03/11 10:57:37;;;;;;;11.90;5.00;;;;;;;1.89;100.00;98943.42;214621;1291;138790;-91
2023/03/11 11:02:40;;;;;;;11.50;5.20;;;;;;;1.94;100.00;98955.84;215901;1289;138400;-94
2023/03/11 11:07:42;;;;;;;12.50;5.00;;;;;;;2.05;100.00;98970.52;214920;1292;138931;-93
2023/03/11 11:13:16;;;;;;;12.30;5.30;;;;;;;2.16;100.00;98982.53;215600;1293;139899;-92
2023/03/11 11:18:27;;;;;;;13.40;6.40;;;;;;;2.26;100.00;98984.11;214824;1291;138599;-92
2023/03/11 11:23:38;;;;;;;11.90;5.20;;;;;;;2.32;100.00;98991.23;215619;1291;138334;-95
2023/03/11 11:28:39;;;;;;;10.80;4.70;;;;;;;2.41;100.00;99000.66;215370;1289;139400;-92
2023/03/11 11:33:49;;;;;;;11.60;4.80;;;;;;;2.48;100.00;99005.96;215632;1289;138832;-91
2023/03/11 11:38:53;;;;;;;10.60;4.40;;;;;;;2.49;100.00;99021.54;215223;1291;138302;-92
2023/03/11 11:43:58;;;;;;;12.60;4.60;;;;;;;2.48;100.00;99030.52;215660;1291;138936;-90
2023/03/11 11:49:12;;;;;;;10.60;4.00;;;;;;;2.49;100.00;99047.98;214993;1289;140085;-89
2023/03/11 11:54:24;;;;;;;8.50;3.50;;;;;;;2.51;100.00;99052.21;215118;1291;138756;-88
2023/03/11 11:59:26;;;;;;;7.60;3.40;;;;;;;2.58;100.00;99062.66;214488;1291;139163;-88
2023/03/11 12:04:50;;;;;;;6.70;2.60;;;;;;;2.52;100.00;99068.06;214973;1290;97505;-88
2023/03/11 12:09:57;;;;;;;7.70;3.40;;;;;;;2.41;100.00;99074.65;214463;1288;138132;-88
2023/03/11 12:15:22;;;;;;;10.90;4.60;;;;;;;2.45;100.00;99082.23;214889;1292;137994;-87
2023/03/11 12:20:31;;;;;;;8.70;3.60;;;;;;;2.50;100.00;99084.47;214483;1293;138638;-85
2023/03/11 12:25:51;;;;;;;9.30;3.60;;;;;;;2.60;100.00;99094.77;215065;1289;138188;-88
2023/03/11 12:30:57;;;;;;;7.20;3.20;;;;;;;2.62;100.00;99106.75;214403;1288;140018;-87
2023/03/11 12:35:59;;;;;;;6.80;2.80;;;;;;;2.62;100.00;99122.42;214380;1291;138646;-88
2023/03/11 12:41:03;;;;;;;7.40;2.60;;;;;;;2.65;100.00;99122.80;215184;1290;97915;-90
2023/03/11 12:46:04;;;;;;;7.40;3.80;;;;;;;2.75;100.00;99135.42;214418;1291;138798;-86
2023/03/11 12:51:05;;;;;;;6.50;2.20;;;;;;;2.90;100.00;99138.84;214825;1289;138212;-89
2023/03/11 12:56:14;;;;;;;7.10;2.70;;;;;;;2.99;100.00;99148.90;214124;1293;138925;-89
2023/03/11 13:01:18;;;;;;;5.60;2.10;;;;;;;2.99;100.00;99159.36;214757;1289;139129;-90
2023/03/11 13:06:25;;;;;;;6.80;2.30;;;;;;;3.04;100.00;99168.02;214449;1288;138730;-90
2023/03/11 13:11:25;;;;;;;;;;;;;;;2.98;100.00;99184.42;215020;1292;138521;-88
2023/03/11 13:16:25;;;;;;;6.30;2.60;;;;;;;2.97;100.00;99189.92;214612;1291;125397;-89
2023/03/11 13:21:26;;;;;;;9.70;3.40;;;;;;;2.92;100.00;99200.77;215110;1290;138176;-86
2023/03/11 13:26:39;;;;;;;8.70;3.00;;;;;;;2.86;100.00;99206.15;214489;1292;139138;-88
2023/03/11 13:31:48;;;;;;;8.80;3.40;;;;;;;2.79;100.00;99222.45;215145;1289;137101;-90
2023/03/11 13:36:52;;;;;;;9.50;4.00;;;;;;;2.74;100.00;99226.89;214401;1289;139039;-87
2023/03/11 13:41:53;;;;;;;6.80;2.30;;;;;;;2.78;100.00;99232.83;215197;1292;138310;-90
2023/03/11 13:47:13;;;;;;;7.90;3.10;;;;;;;2.75;100.00;99244.23;214496;1289;138684;-87
2023/03/11 13:52:23;;;;;;;9.60;3.90;;;;;;;2.67;100.00;99252.73;215114;1289;109633;-87
2023/03/11 13:57:29;;;;;;;6.90;2.40;;;;;;;2.65;100.00;99263.34;214557;1292;138328;-90
2023/03/11 14:02:29;;;;;;;10.60;3.10;;;;;;;2.67;100.00;99273.45;214958;1291;138009;-89
2023/03/11 14:07:36;;;;;;;10.40;3.40;;;;;;;2.70;100.00;99285.41;214640;1294;138410;-89
2023/03/11 14:12:37;;;;;;;9.80;3.50;;;;;;;2.76;100.00;99292.69;215095;1291;138426;-88
2023/03/11 14:17:38;;;;;;;7.50;3.00;;;;;;;2.71;100.00;99301.58;214747;1289;138963;-88
2023/03/11 14:22:38;;;;;;;7.90;3.30;;;;;;;2.68;100.00;99308.95;215239;1289;96587;-88
2023/03/11 14:27:46;;;;;;;7.30;2.80;;;;;;;2.67;100.00;99323.59;214650;1292;138777;-88
2023/03/11 14:33:01;;;;;;;7.60;2.60;;;;;;;2.65;100.00;99329.21;215068;1289;138146;-87
2023/03/11 14:38:01;;;;;;;7.00;2.70;;;;;;;2.61;99.91;99334.16;214617;1288;138498;-88
2023/03/11 14:43:05;;;;;;;9.90;2.80;;;;;;;2.62;99.97;99345.74;215284;1289;138533;-89
2023/03/11 14:48:09;;;;;;;8.10;3.40;;;;;;;2.60;99.43;99349.27;214440;1289;138036;-88
2023/03/11 14:53:53;;;;;;;7.10;2.40;;;;;;;2.59;99.90;99355.59;215231;1294;137950;-87
2023/03/11 14:59:09;;;;;;;13.10;4.90;;;;;;;2.48;98.38;99361.92;213395;1300;139041;-86
2023/03/11 15:04:25;;;;;;;10.40;3.40;;;;;;;2.44;99.37;99371.88;214951;1289;96689;-86
2023/03/11 15:09:28;;;;;;;10.50;3.90;;;;;;;2.47;99.70;99378.95;214331;1289;138371;-86
2023/03/11 15:14:31;;;;;;;8.80;3.50;;;;;;;2.45;99.77;99389.52;214972;1294;138319;-86
2023/03/11 15:19:33;;;;;;;9.50;3.40;;;;;;;2.38;99.81;99392.29;214334;1291;137978;-85
2023/03/11 15:24:34;;;;;;;11.00;3.60;;;;;;;2.30;99.63;99402.32;214846;1294;137949;-86
2023/03/11 15:29:35;;;;;;;10.70;4.20;;;;;;;2.21;100.00;99410.30;214528;1290;138328;-87
2023/03/11 15:34:37;;;;;;;11.00;4.40;;;;;;;2.17;99.99;99419.80;215450;1289;96558;-88
2023/03/11 15:39:42;;;;;;;12.30;4.00;;;;;;;2.14;100.00;99424.89;214566;1292;138083;-89
2023/03/11 15:45:07;;;;;;;11.00;4.80;;;;;;;2.14;100.00;99436.06;215109;1293;138656;-86
2023/03/11 15:50:28;;;;;;;10.80;4.90;;;;;;;2.14;100.00;99443.81;214578;1292;139004;-86
2023/03/11 15:55:29;;;;;;;12.50;4.80;;;;;;;2.15;100.00;99447.26;215196;1291;138382;-86
2023/03/11 16:00:30;;;;;;;10.60;5.20;;;;;;;2.09;100.00;99452.05;214388;1292;139198;-88
2023/03/11 16:05:31;;;;;;;11.60;5.20;;;;;;;2.04;100.00;99454.30;215052;1294;139354;-88
2023/03/11 16:10:31;;;;;;;11.20;4.90;;;;;;;2.00;100.00;99467.11;214447;1292;449914;-88
2023/03/11 16:15:35;;;;;;;11.10;5.20;;;;;;;1.93;100.00;99467.23;215240;1293;138084;-86
2023/03/11 16:20:41;;;;;;;11.60;5.60;;;;;;;1.84;100.00;99474.94;214609;1289;139720;-87
2023/03/11 16:25:42;;;;;;;12.80;6.10;;;;;;;1.78;100.00;99482.04;214964;1291;138331;-87
2023/03/11 16:30:43;;;;;;;15.20;7.50;;;;;;;1.71;100.00;99488.96;214518;1289;138448;-87
2023/03/11 16:35:44;;;;;;;19.60;8.80;;;;;;;1.63;100.00;99492.91;215034;1291;138521;-87
2023/03/11 16:40:56;;;;;;;16.80;7.70;;;;;;;1.55;100.00;99498.38;215181;1292;139423;-87
2023/03/11 16:45:57;;;;;;;16.40;6.90;;;;;;;1.44;100.00;99506.52;214818;1289;140491;-87
2023/03/11 16:50:59;;;;;;;18.10;9.20;;;;;;;1.34;100.00;99517.98;215049;1289;138771;-88
2023/03/11 16:56:00;;;;;;;17.90;8.90;;;;;;;1.26;100.00;99530.04;214963;1295;139836;-88
2023/03/11 17:01:00;;;;;;;15.50;8.20;;;;;;;1.14;100.00;99533.58;215301;1295;139224;-87
2023/03/11 17:06:02;;;;;;;17.90;8.30;;;;;;;1.07;100.00;99540.77;214921;1294;139075;-88
2023/03/11 17:11:03;;;;;;;18.90;8.40;;;;;;;0.99;100.00;99544.14;215222;1293;97919;-88
2023/03/11 17:16:04;;;;;;;18.20;10.60;;;;;;;0.91;100.00;99555.55;215233;1289;138502;-89
2023/03/11 17:21:06;;;;;;;23.70;11.00;;;;;;;0.84;100.00;99568.08;215717;1292;138377;-87
2023/03/11 17:26:10;;;;;;;19.80;10.00;;;;;;;0.76;100.00;99575.96;215242;1289;139452;-87
2023/03/11 17:31:15;;;;;;;19.10;9.10;;;;;;;0.66;100.00;99582.52;215180;1291;138783;-89
2023/03/11 17:36:16;;;;;;;16.80;8.40;;;;;;;0.58;100.00;99592.56;215020;1289;139616;-86
2023/03/11 17:41:17;;;;;;;19.00;9.00;;;;;;;0.47;100.00;99600.35;215029;1291;138483;-86
2023/03/11 17:46:19;;;;;;;16.40;9.10;;;;;;;0.36;100.00;99601.70;214827;1289;138634;-86
2023/03/11 17:51:23;;;;;;;27.30;12.90;;;;;;;0.26;100.00;99608.84;215287;1289;138372;-85
2023/03/11 17:56:23;;;;;;;27.00;13.10;;;;;;;0.18;100.00;99612.93;214823;1289;139544;-85
2023/03/11 18:01:25;;;;;;;30.40;13.60;;;;;;;0.10;100.00;99619.36;215241;1289;138537;-86
2023/03/11 18:06:26;;;;;;;25.60;10.90;;;;;;;0.03;100.00;99627.34;214659;1289;140218;-86
2023/03/11 18:11:27;;;;;;;20.30;8.90;;;;;;;-0.02;100.00;99631.77;215335;1289;138825;-85
2023/03/11 18:16:30;;;;;;;27.20;11.20;;;;;;;-0.07;100.00;99635.52;214789;1293;138968;-85
2023/03/11 18:21:31;;;;;;;19.30;7.70;;;;;;;-0.10;100.00;99638.30;215320;1289;138857;-87
2023/03/11 18:26:33;;;;;;;24.50;11.40;;;;;;;-0.12;100.00;99649.42;215238;1289;139165;-86
2023/03/11 18:31:33;;;;;;;18.20;8.10;;;;;;;-0.16;100.00;99654.61;215867;1289;139599;-86
2023/03/11 18:36:36;;;;;;;29.00;11.50;;;;;;;-0.19;100.00;99660.88;214658;1294;138941;-87
2023/03/11 18:41:37;;;;;;;17.90;8.20;;;;;;;-0.23;100.00;99671.16;215218;1288;139673;-86
2023/03/11 18:46:40;;;;;;;17.40;8.00;;;;;;;-0.27;100.00;99678.11;215159;1290;139001;-87
2023/03/11 18:51:41;;;;;;;16.60;7.10;;;;;;;-0.29;100.00;99677.15;215740;1289;139641;-86
2023/03/11 18:56:41;;;;;;;17.00;8.70;;;;;;;-0.31;100.00;99678.85;215153;1293;140412;-86
2023/03/11 19:01:41;;;;;;;21.40;8.60;;;;;;;-0.34;100.00;99682.42;215565;1289;139333;-86
2023/03/11 19:06:42;;;;;;;19.70;7.90;;;;;;;-0.36;100.00;99689.04;214996;1288;139792;-86
2023/03/11 19:11:43;;;;;;;18.90;9.00;;;;;;;-0.39;100.00;99691.32;215951;1288;138863;-86
2023/03/11 19:16:43;;;;;;;20.60;8.90;;;;;;;-0.42;100.00;99701.84;215423;1294;139610;-87
2023/03/11 19:21:44;;;;;;;19.40;9.20;;;;;;;-0.45;100.00;99711.35;215645;1292;138602;-86
2023/03/11 19:26:45;;;;;;;21.90;10.00;;;;;;;-0.49;100.00;99717.31;214992;1291;139142;-87
2023/03/11 19:31:45;;;;;;;21.00;10.10;;;;;;;-0.52;100.00;99722.47;215340;1292;138953;-87
2023/03/11 19:36:46;;;;;;;21.80;9.70;;;;;;;-0.56;100.00;99731.29;215009;1289;139071;-86
2023/03/11 19:41:47;;;;;;;17.30;8.40;;;;;;;-0.58;100.00;99742.21;215471;1289;138928;-87
2023/03/11 19:46:47;;;;;;;16.90;8.50;;;;;;;-0.61;100.00;99742.10;214921;1289;139011;-86
2023/03/11 19:51:48;;;;;;;16.10;8.10;;;;;;;-0.63;100.00;99748.65;215178;1288;138648;-86
2023/03/11 19:56:48;;;;;;;18.80;8.00;;;;;;;-0.65;100.00;99750.88;214773;1288;139405;-87
2023/03/11 20:01:49;;;;;;;19.50;7.80;;;;;;;-0.65;100.00;99747.38;215216;1288;138806;-87
2023/03/11 20:06:49;;;;;;;18.50;7.70;;;;;;;-0.66;100.00;99747.73;214563;1289;139572;-87
2023/03/11 20:11:50;;;;;;;18.50;7.00;;;;;;;-0.69;100.00;99749.09;215060;1289;138803;-88
2023/03/11 20:16:51;;;;;;;16.50;7.50;;;;;;;-0.70;100.00;99749.70;214811;1289;138964;-87
2023/03/11 20:21:51;;;;;;;17.00;7.50;;;;;;;-0.72;100.00;99752.12;215177;1292;139238;-87
2023/03/11 20:26:52;;;;;;;15.20;7.20;;;;;;;-0.72;100.00;99755.42;214637;1289;139343;-87
2023/03/11 20:31:53;;;;;;;15.50;7.20;;;;;;;-0.72;100.00;99757.81;215003;1289;138772;-87
2023/03/11 20:36:53;;;;;;;15.80;7.30;;;;;;;-0.72;100.00;99757.81;214692;1289;139253;-86
2023/03/11 20:41:54;;;;;;;15.10;7.50;;;;;;;-0.73;100.00;99763.95;215367;1292;138711;-87
2023/03/11 20:46:54;;;;;;;14.90;6.70;;;;;;;-0.74;100.00;99767.13;214547;1288;138355;-86
2023/03/11 20:51:55;;;;;;;16.10;8.30;;;;;;;-0.74;100.00;99767.39;215058;1288;138875;-87
2023/03/11 20:56:55;;;;;;;16.60;7.80;;;;;;;-0.73;100.00;99764.55;214622;1288;139909;-88
2023/03/11 21:01:56;;;;;;;16.60;7.30;;;;;;;-0.72;100.00;99766.46;215023;1289;139869;-87
2023/03/11 21:06:56;;;;;;;16.10;8.10;;;;;;;-0.72;100.00;99766.23;214466;1289;139159;-87
2023/03/11 21:11:57;;;;;;;18.00;8.40;;;;;;;-0.74;100.00;99765.30;214957;1288;138693;-87
2023/03/11 21:16:57;;;;;;;20.10;8.40;;;;;;;-0.75;100.00;99766.23;214751;1288;138729;-88
2023/03/11 21:21:57;;;;;;;17.90;7.70;;;;;;;-0.77;100.00;99764.93;215232;1289;138546;-87
2023/03/11 21:26:58;;;;;;;16.60;7.60;;;;;;;-0.77;100.00;99761.92;214790;1290;140535;-86
2023/03/11 21:31:59;;;;;;;16.80;7.80;;;;;;;-0.77;100.00;99762.52;215075;1288;138616;-88
2023/03/11 21:36:59;;;;;;;19.00;7.90;;;;;;;-0.76;100.00;99758.19;214621;1288;139211;-87
2023/03/11 21:42:00;;;;;;;16.90;8.00;;;;;;;-0.73;100.00;99758.16;215181;1289;139108;-86
2023/03/11 21:47:00;;;;;;;15.80;7.20;;;;;;;-0.72;100.00;99756.64;214851;1289;140497;-88
2023/03/11 21:52:01;;;;;;;14.80;6.30;;;;;;;-0.72;100.00;99755.27;215305;1289;139055;-87
2023/03/11 21:57:02;;;;;;;14.10;6.40;;;;;;;-0.72;100.00;99752.48;214826;1289;139082;-88
2023/03/11 22:02:02;;;;;;;14.90;5.70;;;;;;;-0.72;100.00;99748.30;215344;1291;139899;-88
2023/03/11 22:07:02;;;;;;;17.80;6.20;;;;;;;-0.72;100.00;99746.23;214565;1289;139701;-87
2023/03/11 22:12:03;;;;;;;15.80;6.10;;;;;;;-0.72;100.00;99742.68;215160;1288;139182;-87
2023/03/11 22:17:03;;;;;;;15.80;6.70;;;;;;;-0.72;100.00;99739.70;214971;1289;138550;-86
2023/03/11 22:22:04;;;;;;;13.00;6.30;;;;;;;-0.69;100.00;99741.02;215143;1289;138937;-86
2023/03/11 22:27:04;;;;;;;15.00;5.10;;;;;;;-0.69;100.00;99745.86;214485;1290;140599;-87
2023/03/11 22:32:05;;;;;;;12.40;5.10;;;;;;;-0.66;100.00;99746.20;215189;1290;138777;-87
2023/03/11 22:37:05;;;;;;;12.80;4.30;;;;;;;-0.61;100.00;99745.41;214636;1289;139947;-87
2023/03/11 22:42:05;;;;;;;12.90;4.90;;;;;;;-0.58;100.00;99739.61;215085;1289;138783;-87
2023/03/11 22:47:06;;;;;;;13.40;5.80;;;;;;;-0.54;100.00;99738.02;214803;1288;138443;-87
2023/03/11 22:52:07;;;;;;;10.80;4.90;;;;;;;-0.49;100.00;99742.31;214860;1291;138894;-87
2023/03/11 22:57:07;;;;;;;12.70;4.70;;;;;;;-0.47;100.00;99738.92;214396;1289;139406;-87